Time;durP1;ratioP1;P1;durP2;ratioP2;P2;SDS_P1;SDS_P2;PMS_P1;PMS_P2;Temp;Humidity;BMP_temperature;BMP_pressure;BME280_temperature;BME280_humidity;BME280_pressure;Samples;Min_cycle;Max_cycle;Signal;HPM_P1;HPM_P2
2023/11/15 00:00:47;;;;;;;;;;;;;;;28.98;72.10;101125.69;5091369;27;69229;-33
2023/11/15 00:03:17;;;;;;;;;;;;;;;29.02;72.46;101115.31;5081771;27;66257;-33
2023/11/15 00:05:48;;;;;;;;;;;;;;;29.05;74.09;101120.34;5085080;27;69727;-34
2023/11/15 00:08:18;;;;;;;;;;;;;;;29.20;76.09;101134.53;5081424;27;67110;-34
2023/11/15 00:10:48;;;;;;;;;;;;;;;29.20;76.85;101145.34;5082304;27;70267;-34
2023/11/15 00:13:18;;;;;;;;;;;;;;;29.18;77.03;101142.84;5092870;27;65914;-34
2023/11/15 00:15:48;;;;;;;;;;;;;;;29.15;77.49;101147.81;5081141;27;70389;-35
2023/11/15 00:18:18;;;;;;;;;;;;;;;29.17;77.56;101146.56;5086557;27;66864;-32
2023/11/15 00:20:51;;;;;;;;;;;;;;;29.20;77.58;101161.56;5090817;27;70485;-35
2023/11/15 00:23:21;;;;;;;;;;;;;;;29.27;78.19;101167.78;5085686;27;67031;-34
2023/11/15 00:25:50;;;;;;;;;;;;;;;29.35;78.28;101164.09;5086408;27;70652;-32
2023/11/15 00:28:20;;;;;;;;;;;;;;;29.37;78.82;101170.94;5089299;27;66482;-33
2023/11/15 00:30:50;;;;;;;;;;;;;;;29.35;78.38;101181.13;5099687;27;70599;-33
2023/11/15 00:33:20;;;;;;;;;;;;;;;29.42;78.81;101185.72;5078354;27;67046;-33
2023/11/15 00:35:49;;;;;;;;;;;;;;;29.43;78.19;101192.81;5093998;27;69953;-35
2023/11/15 00:38:19;;;;;;;;;;;;;;;29.43;79.02;101200.91;5097359;27;65434;-33
2023/11/15 00:40:50;;;;;;;;;;;;;;;29.49;78.33;101208.19;5090066;27;69186;-33
2023/11/15 00:43:21;;;;;;;;;;;;;;;29.49;77.99;101203.63;5096604;27;66250;-34
2023/11/15 00:45:50;;;;;;;;;;;;;;;29.46;75.76;101214.00;5100952;27;70725;-34
2023/11/15 00:48:20;;;;;;;;;;;;;;;29.48;74.13;101218.19;5101476;27;66613;-32
2023/11/15 00:50:51;;;;;;;;;;;;;;;29.53;72.96;101220.25;5083574;27;69968;-33
2023/11/15 00:53:21;;;;;;;;;;;;;;;29.56;72.70;101225.25;5103239;27;66514;-33
2023/11/15 00:55:51;;;;;;;;;;;;;;;29.60;71.90;101231.94;5075354;27;69885;-33
2023/11/15 00:58:22;;;;;;;;;;;;;;;29.64;71.37;101238.63;5103607;27;67370;-33
2023/11/15 01:00:55;;;;;;;;;;;;;;;29.67;70.90;101243.66;5083912;27;71305;-34
2023/11/15 01:03:28;;;;;;;;;;;;;;;29.71;70.29;101250.31;5099262;27;66514;-34
2023/11/15 01:06:01;;;;;;;;;;;;;;;29.74;69.96;101244.47;5084410;27;70335;-34
2023/11/15 01:08:30;;;;;;;;;;;;;;;29.76;70.38;101242.41;5080509;27;66153;-34
2023/11/15 01:11:00;;;;;;;;;;;;;;;29.79;69.70;101247.41;5098435;27;69149;-35
2023/11/15 01:13:32;;;;;;;;;;;;;;;29.82;69.46;101255.13;5078603;27;66430;-34
2023/11/15 01:16:04;;;;;;;;;;;;;;;29.85;69.36;101259.28;5101836;27;69842;-33
2023/11/15 01:18:34;;;;;;;;;;;;;;;29.88;69.62;101260.75;5084380;27;67154;-33
2023/11/15 01:21:05;;;;;;;;;;;;;;;29.91;69.03;101266.56;5085749;27;70352;-33
2023/11/15 01:23:35;;;;;;;;;;;;;;;29.93;69.49;101269.91;5103938;27;65570;-33
2023/11/15 01:26:06;;;;;;;;;;;;;;;29.95;68.90;101267.84;5102523;27;69883;-33
2023/11/15 01:28:35;;;;;;;;;;;;;;;29.97;69.41;101271.16;5102857;27;65536;-34
2023/11/15 01:31:05;;;;;;;;;;;;;;;29.99;69.13;101266.38;5103927;27;70659;-33
2023/11/15 01:33:34;;;;;;;;;;;;;;;30.03;69.46;101269.50;5082822;27;66713;-34
2023/11/15 01:36:05;;;;;;;;;;;;;;;30.04;69.27;101265.78;5084142;27;69740;-34
2023/11/15 01:38:36;;;;;;;;;;;;;;;30.05;68.75;101257.44;5101946;27;66113;-33
2023/11/15 01:41:06;;;;;;;;;;;;;;;30.08;69.33;101258.91;5102348;27;69926;-33
2023/11/15 01:43:36;;;;;;;;;;;;;;;30.11;68.86;101250.38;5102529;27;65361;-33
2023/11/15 01:46:06;;;;;;;;;;;;;;;30.13;68.71;101248.31;5092801;27;70760;-32
2023/11/15 01:48:37;;;;;;;;;;;;;;;30.16;68.73;101238.94;5084193;27;65757;-33
2023/11/15 01:51:08;;;;;;;;;;;;;;;30.17;69.16;101236.03;5101872;27;70468;-33
2023/11/15 01:53:40;;;;;;;;;;;;;;;30.20;69.04;101241.03;5083225;27;66215;-33
2023/11/15 01:56:10;;;;;;;;;;;;;;;30.23;68.94;101242.53;5083998;27;70582;-34
2023/11/15 01:58:40;;;;;;;;;;;;;;;30.24;69.13;101239.59;5083013;27;66358;-33
2023/11/15 02:01:14;;;;;;;;;;;;;;;30.26;69.13;101242.94;5082648;27;70873;-34
2023/11/15 02:03:44;;;;;;;;;;;;;;;30.30;69.21;101237.13;5102921;27;65589;-34
2023/11/15 02:06:15;;;;;;;;;;;;;;;30.32;68.61;101240.44;5101206;27;69763;-33
2023/11/15 02:08:45;;;;;;;;;;;;;;;30.33;68.49;101239.41;5101247;27;66544;-33
2023/11/15 02:11:16;;;;;;;;;;;;;;;30.36;68.98;101238.97;5082462;27;70840;-34
2023/11/15 02:13:47;;;;;;;;;;;;;;;30.38;68.66;101245.03;5084591;27;66966;-34
2023/11/15 02:16:17;;;;;;;;;;;;;;;30.41;68.48;101256.25;5099812;27;70897;-33
2023/11/15 02:18:48;;;;;;;;;;;;;;;30.43;68.91;101264.19;5084056;27;67530;-32
2023/11/15 02:21:19;;;;;;;;;;;;;;;30.44;68.63;101258.53;5101113;27;69143;-34
2023/11/15 02:23:51;;;;;;;;;;;;;;;30.47;68.59;101254.59;5101159;27;66822;-33
2023/11/15 02:26:22;;;;;;;;;;;;;;;30.49;68.68;101252.50;5089420;27;70253;-34
2023/11/15 02:28:53;;;;;;;;;;;;;;;30.50;68.57;101260.41;5083477;27;65998;-34
2023/11/15 02:31:24;;;;;;;;;;;;;;;30.54;68.83;101260.03;5101745;27;70729;-33
2023/11/15 02:33:54;;;;;;;;;;;;;;;30.56;68.52;101258.75;5101981;27;66670;-34
2023/11/15 02:36:24;;;;;;;;;;;;;;;30.57;68.74;101260.44;5101603;27;70163;-34
2023/11/15 02:38:54;;;;;;;;;;;;;;;30.60;68.69;101260.00;5102452;27;66358;-33
2023/11/15 02:41:25;;;;;;;;;;;;;;;30.63;68.64;101264.16;5102249;27;70348;-32
2023/11/15 02:43:55;;;;;;;;;;;;;;;30.66;68.55;101266.47;5100563;27;65592;-35
2023/11/15 02:46:26;;;;;;;;;;;;;;;30.66;68.35;101275.41;5071239;27;68888;-32
2023/11/15 02:48:56;;;;;;;;;;;;;;;30.69;68.50;101283.09;5100487;27;65190;-33
2023/11/15 02:51:26;;;;;;;;;;;;;;;30.71;68.87;101283.75;5100939;27;70309;-32
2023/11/15 02:53:57;;;;;;;;;;;;;;;30.73;68.37;101295.22;5099392;27;65947;-33
2023/11/15 02:56:27;;;;;;;;;;;;;;;30.75;68.35;101289.56;5102324;27;70104;-33
2023/11/15 02:58:58;;;;;;;;;;;;;;;30.78;68.53;101291.03;5101749;27;65947;-33
2023/11/15 03:01:28;;;;;;;;;;;;;;;30.80;68.81;101288.97;5101484;27;70726;-33
2023/11/15 03:03:59;;;;;;;;;;;;;;;30.82;68.43;101281.47;5101390;27;65903;-35
2023/11/15 03:06:29;;;;;;;;;;;;;;;30.84;68.66;101284.78;5081903;27;69763;-40
2023/11/15 03:09:13;;;;;;;;;;;;;;;30.86;68.41;101285.41;5096244;27;66412;-33
2023/11/15 03:11:44;;;;;;;;;;;;;;;30.89;68.43;101287.69;5098216;27;69912;-33
2023/11/15 03:14:14;;;;;;;;;;;;;;;30.93;68.66;101278.13;5083314;27;65282;-33
2023/11/15 03:16:45;;;;;;;;;;;;;;;30.94;68.81;101285.19;5072119;27;70843;-34
2023/11/15 03:19:15;;;;;;;;;;;;;;;30.96;68.36;101285.81;5099197;27;66846;-33
2023/11/15 03:21:46;;;;;;;;;;;;;;;30.98;68.62;101274.75;5082849;27;69164;-34
2023/11/15 03:24:16;;;;;;;;;;;;;;;31.01;68.90;101283.31;5101596;27;66305;-34
2023/11/15 03:26:46;;;;;;;;;;;;;;;31.03;68.59;101281.22;5099768;27;70513;-33
2023/11/15 03:29:17;;;;;;;;;;;;;;;31.05;68.53;101283.72;5101445;27;66549;-33
2023/11/15 03:31:47;;;;;;;;;;;;;;;31.07;68.73;101281.66;5066857;28;70723;-34
2023/11/15 03:34:17;;;;;;;;;;;;;;;31.10;68.65;101275.78;5098156;27;66548;-33
2023/11/15 03:36:47;;;;;;;;;;;;;;;31.11;68.74;101278.28;5083218;27;69986;-35
2023/11/15 03:39:19;;;;;;;;;;;;;;;31.14;68.60;101282.44;5081066;27;66782;-35
2023/11/15 03:41:49;;;;;;;;;;;;;;;31.16;68.66;101275.75;5081556;27;70028;-34
2023/11/15 03:44:20;;;;;;;;;;;;;;;31.19;68.69;101279.09;5097133;27;65338;-34
2023/11/15 03:46:50;;;;;;;;;;;;;;;31.21;68.67;101268.88;5081054;27;70344;-34
2023/11/15 03:49:20;;;;;;;;;;;;;;;31.24;68.65;101261.16;5098967;27;66652;-34
2023/11/15 03:51:50;;;;;;;;;;;;;;;31.25;68.44;101267.41;5097892;27;70611;-34
2023/11/15 03:54:21;;;;;;;;;;;;;;;31.28;68.38;101261.56;5080661;27;65599;-37
2023/11/15 03:56:51;;;;;;;;;;;;;;;31.29;68.76;101257.81;5080845;27;70028;-34
2023/11/15 03:59:21;;;;;;;;;;;;;;;31.32;68.64;101257.38;5083406;27;66050;-34
2023/11/15 04:01:52;;;;;;;;;;;;;;;31.32;68.60;101251.97;5100487;27;70101;-33
2023/11/15 04:04:26;;;;;;;;;;;;;;;31.34;68.48;101247.13;5100061;27;66587;-34
2023/11/15 04:06:57;;;;;;;;;;;;;;;31.35;68.65;101237.97;5094474;27;69992;-33
2023/11/15 04:09:27;;;;;;;;;;;;;;;31.38;68.48;101234.88;5099795;27;65063;-35
2023/11/15 04:11:57;;;;;;;;;;;;;;;31.39;68.59;101236.50;5082221;27;70088;-33
2023/11/15 04:14:44;;;;;;;;;;;;;;;31.41;68.25;101231.72;5100849;27;65457;-33
2023/11/15 04:17:31;;;;;;;;;;;;;;;31.42;68.47;101233.38;5098998;27;69568;-34
2023/11/15 04:20:01;;;;;;;;;;;;;;;31.44;68.36;101227.75;5100244;27;66052;-34
2023/11/15 04:22:31;;;;;;;;;;;;;;;31.45;68.43;101224.81;5080502;27;70318;-34
2023/11/15 04:25:01;;;;;;;;;;;;;;;31.47;68.41;101216.47;5099223;27;66863;-35
2023/11/15 04:27:31;;;;;;;;;;;;;;;31.49;67.96;101215.19;5100368;27;69105;-34
2023/11/15 04:30:01;;;;;;;;;;;;;;;31.50;68.38;101216.84;5092670;27;66001;-33
2023/11/15 04:32:32;;;;;;;;;;;;;;;31.51;68.33;101207.69;5101147;27;70423;-34
2023/11/15 04:35:02;;;;;;;;;;;;;;;31.52;68.14;101198.50;5099910;27;66781;-33
2023/11/15 04:37:33;;;;;;;;;;;;;;;31.54;67.91;101195.59;5098647;27;69811;-36
2023/11/15 04:40:06;;;;;;;;;;;;;;;31.54;68.28;101196.41;5100785;27;65390;-35
2023/11/15 04:42:37;;;;;;;;;;;;;;;31.55;68.17;101187.22;5100720;27;69180;-33
2023/11/15 04:45:07;;;;;;;;;;;;;;;31.56;67.79;101178.03;5081394;27;67061;-33
2023/11/15 04:47:37;;;;;;;;;;;;;;;31.57;67.95;101170.75;5094633;27;69915;-33
2023/11/15 04:50:08;;;;;;;;;;;;;;;31.59;67.74;101172.19;5087366;27;66052;-33
2023/11/15 04:52:38;;;;;;;;;;;;;;;31.59;67.58;101168.63;5100815;27;69849;-34
2023/11/15 04:55:09;;;;;;;;;;;;;;;31.61;67.40;101170.06;5101610;27;66592;-34
2023/11/15 04:57:39;;;;;;;;;;;;;;;31.62;67.50;101165.47;5096124;27;70317;-34
2023/11/15 05:00:11;;;;;;;;;;;;;;;31.63;67.19;101155.47;5101215;27;66339;-33
2023/11/15 05:02:41;;;;;;;;;;;;;;;31.64;67.30;101149.81;5097607;27;69468;-34
2023/11/15 05:05:10;;;;;;;;;;;;;;;31.66;67.37;101144.19;5100169;27;65749;-34
2023/11/15 05:07:40;;;;;;;;;;;;;;;31.68;67.27;101147.50;5100062;27;69798;-35
2023/11/15 05:10:10;;;;;;;;;;;;;;;31.69;66.95;101132.91;5100583;27;66161;-34
2023/11/15 05:12:40;;;;;;;;;;;;;;;31.70;67.18;101131.84;5099436;27;70142;-33
2023/11/15 05:15:10;;;;;;;;;;;;;;;31.72;66.87;101127.03;5100281;27;66978;-35
2023/11/15 05:17:40;;;;;;;;;;;;;;;31.72;66.79;101118.91;5099711;27;70465;-35
2023/11/15 05:20:10;;;;;;;;;;;;;;;31.75;66.82;101110.31;5099058;27;66661;-36
2023/11/15 05:22:40;;;;;;;;;;;;;;;31.76;66.66;101106.53;5101223;27;70445;-34
2023/11/15 05:25:10;;;;;;;;;;;;;;;31.76;66.43;101106.53;5099521;27;66986;-36
2023/11/15 05:27:41;;;;;;;;;;;;;;;31.78;66.58;101096.31;5098961;27;70256;-33
2023/11/15 05:30:11;;;;;;;;;;;;;;;31.80;66.36;101088.78;5100382;27;65610;-33
2023/11/15 05:32:42;;;;;;;;;;;;;;;31.81;66.35;101085.00;5091435;27;70047;-34
2023/11/15 05:35:12;;;;;;;;;;;;;;;31.82;66.25;101084.81;5101609;27;66977;-34
2023/11/15 05:37:42;;;;;;;;;;;;;;;31.85;66.35;101083.53;5103604;27;69869;-36
2023/11/15 05:40:18;;;;;;;;;;;;;;;31.87;66.08;101075.97;5099297;27;65787;-35
2023/11/15 05:42:48;;;;;;;;;;;;;;;31.87;65.98;101067.84;5102003;27;70523;-34
2023/11/15 05:45:18;;;;;;;;;;;;;;;31.89;65.98;101056.78;5104151;27;66003;-36
2023/11/15 05:47:48;;;;;;;;;;;;;;;31.90;65.75;101053.84;5099000;27;69838;-34
2023/11/15 05:50:19;;;;;;;;;;;;;;;31.92;65.90;101049.06;5091679;27;66323;-34
2023/11/15 05:52:48;;;;;;;;;;;;;;;31.93;65.90;101031.75;5103227;27;70395;-33
2023/11/15 05:55:18;;;;;;;;;;;;;;;31.94;65.79;101027.13;5094216;27;66732;-34
2023/11/15 05:57:48;;;;;;;;;;;;;;;31.96;65.42;101031.28;5101251;27;70090;-34
2023/11/15 06:00:21;;;;;;;;;;;;;;;31.97;65.40;101016.66;5104239;27;66641;-34
2023/11/15 06:02:51;;;;;;;;;;;;;;;31.98;65.42;101018.34;5103632;27;70707;-34
2023/11/15 06:05:21;;;;;;;;;;;;;;;31.99;65.20;101014.56;5102884;27;66707;-35
2023/11/15 06:07:50;;;;;;;;;;;;;;;32.00;65.39;101010.78;5103532;27;69775;-35
2023/11/15 06:10:20;;;;;;;;;;;;;;;32.04;65.30;101016.59;5110586;27;66061;-36
2023/11/15 06:12:51;;;;;;;;;;;;;;;32.04;65.02;101009.28;5108651;27;69631;-33
2023/11/15 06:15:22;;;;;;;;;;;;;;;32.05;64.96;101010.94;5103820;27;66045;-35
2023/11/15 06:17:52;;;;;;;;;;;;;;;32.08;64.96;101006.13;5102206;27;70360;-35
2023/11/15 06:20:22;;;;;;;;;;;;;;;32.09;65.05;101007.75;5103092;27;66334;-35
2023/11/15 06:22:51;;;;;;;;;;;;;;;32.10;64.90;101004.00;5102963;27;69211;-36
2023/11/15 06:25:22;;;;;;;;;;;;;;;32.11;64.68;101000.25;5101849;27;66909;-35
2023/11/15 06:27:52;;;;;;;;;;;;;;;32.12;64.70;100994.56;5102293;27;70324;-35
2023/11/15 06:30:22;;;;;;;;;;;;;;;32.15;64.75;100993.28;5102410;27;66476;-34
2023/11/15 06:32:52;;;;;;;;;;;;;;;32.16;64.67;100993.06;5102293;27;69808;-33
2023/11/15 06:35:21;;;;;;;;;;;;;;;32.18;64.66;100981.97;5102486;27;67075;-33
2023/11/15 06:37:51;;;;;;;;;;;;;;;32.20;64.54;100982.59;5101171;27;70553;-33
2023/11/15 06:40:21;;;;;;;;;;;;;;;32.22;64.54;100980.47;5102123;27;66868;-33
2023/11/15 06:42:50;;;;;;;;;;;;;;;32.22;64.42;100975.06;5083788;27;69452;-34
2023/11/15 06:45:20;;;;;;;;;;;;;;;32.23;64.28;100971.28;5102797;27;67012;-34
2023/11/15 06:47:50;;;;;;;;;;;;;;;32.24;64.25;100967.53;5102455;27;70436;-33
2023/11/15 06:50:20;;;;;;;;;;;;;;;32.26;64.25;100970.81;5102394;27;65098;-34
2023/11/15 06:52:49;;;;;;;;;;;;;;;32.27;64.17;100961.63;5102572;27;70971;-34
2023/11/15 06:55:19;;;;;;;;;;;;;;;32.29;63.94;100964.97;5101406;27;65925;-36
2023/11/15 06:57:49;;;;;;;;;;;;;;;32.30;63.94;100966.59;5089818;27;69376;-34
2023/11/15 07:00:19;;;;;;;;;;;;;;;32.31;63.98;100956.56;5101510;27;66295;-34
2023/11/15 07:02:49;;;;;;;;;;;;;;;32.32;63.59;100950.94;5101223;27;70600;-34
2023/11/15 07:05:19;;;;;;;;;;;;;;;32.33;63.92;100949.84;5102613;27;66749;-36
2023/11/15 07:07:49;;;;;;;;;;;;;;;32.35;63.54;100941.50;5101493;27;68971;-34
2023/11/15 07:10:19;;;;;;;;;;;;;;;32.35;63.62;100941.50;5101686;27;66090;-33
2023/11/15 07:12:49;;;;;;;;;;;;;;;32.37;63.59;100939.34;5102197;27;70044;-34
2023/11/15 07:15:24;;;;;;;;;;;;;;;32.38;63.46;100947.28;5101866;27;66013;-34
2023/11/15 07:17:54;;;;;;;;;;;;;;;32.39;63.44;100948.94;5100533;27;70845;-33
2023/11/15 07:20:26;;;;;;;;;;;;;;;32.41;63.35;100946.00;5100664;27;68027;-35
2023/11/15 07:22:55;;;;;;;;;;;;;;;32.42;63.24;100948.47;5101088;27;70193;-34
2023/11/15 07:25:27;;;;;;;;;;;;;;;32.43;63.33;100943.88;5100161;27;67089;-33
2023/11/15 07:27:58;;;;;;;;;;;;;;;32.45;63.26;100941.75;5102430;27;68723;-34
2023/11/15 07:30:28;;;;;;;;;;;;;;;32.46;63.27;100944.28;5101430;27;66617;-34
2023/11/15 07:32:58;;;;;;;;;;;;;;;32.47;63.13;100940.50;5093224;27;69708;-32
2023/11/15 07:35:28;;;;;;;;;;;;;;;32.50;63.10;100944.66;5101280;27;66578;-34
2023/11/15 07:37:58;;;;;;;;;;;;;;;32.51;62.92;100945.47;5100954;27;70445;-34
2023/11/15 07:40:28;;;;;;;;;;;;;;;32.53;62.92;100937.94;5099532;27;66867;-34
2023/11/15 07:43:00;;;;;;;;;;;;;;;32.54;63.08;100934.16;5098302;27;70481;-34
2023/11/15 07:45:33;;;;;;;;;;;;;;;32.55;62.84;100935.81;5101440;27;66602;-33
2023/11/15 07:48:05;;;;;;;;;;;;;;;32.56;62.88;100926.59;5070469;27;70363;-34
2023/11/15 07:50:35;;;;;;;;;;;;;;;32.57;62.82;100934.53;5101068;27;66011;-33
2023/11/15 07:53:05;;;;;;;;;;;;;;;32.58;62.75;100933.47;5101050;27;69653;-34
2023/11/15 07:55:35;;;;;;;;;;;;;;;32.59;62.59;100926.13;5100464;27;65690;-35
2023/11/15 07:58:06;;;;;;;;;;;;;;;32.60;62.69;100930.53;5099719;27;70395;-33
2023/11/15 08:00:36;;;;;;;;;;;;;;;32.62;62.71;100936.53;5100269;27;66078;-33
2023/11/15 08:03:07;;;;;;;;;;;;;;;32.62;62.30;100937.38;5101273;27;70909;-33
2023/11/15 08:05:37;;;;;;;;;;;;;;;32.63;62.49;100944.47;5101208;27;67534;-34
2023/11/15 08:08:08;;;;;;;;;;;;;;;32.65;62.30;100938.78;5098086;27;70427;-34
2023/11/15 08:10:42;;;;;;;;;;;;;;;32.65;62.39;100947.78;5101564;27;66166;-33
2023/11/15 08:13:12;;;;;;;;;;;;;;;32.66;62.21;100954.03;5101251;27;70248;-34
2023/11/15 08:15:42;;;;;;;;;;;;;;;32.67;62.28;100958.41;5099239;27;66281;-33
2023/11/15 08:18:13;;;;;;;;;;;;;;;32.68;62.17;100955.47;5082057;27;70113;-33
2023/11/15 08:20:43;;;;;;;;;;;;;;;32.69;62.10;100959.00;5099141;27;66307;-35
2023/11/15 08:23:13;;;;;;;;;;;;;;;32.69;62.02;100959.00;5099143;27;70712;-34
2023/11/15 08:25:50;;;;;;;;;;;;;;;32.71;61.96;100973.19;5100032;27;66383;-33
2023/11/15 08:28:22;;;;;;;;;;;;;;;32.71;62.03;100975.91;5100268;27;70387;-33
2023/11/15 08:30:52;;;;;;;;;;;;;;;32.71;62.05;100968.59;5098031;27;66272;-34
2023/11/15 08:33:22;;;;;;;;;;;;;;;32.71;61.80;100970.47;5098283;27;69962;-34
2023/11/15 08:35:53;;;;;;;;;;;;;;;32.72;61.72;100969.41;5082650;27;66872;-34
2023/11/15 08:38:24;;;;;;;;;;;;;;;32.43;61.80;100919.44;5100009;27;70697;-33
2023/11/15 08:40:55;;;;;;;;;;;;;;;32.73;61.54;100971.06;5077175;27;66352;-34
2023/11/15 08:43:25;;;;;;;;;;;;;;;32.75;61.76;100968.13;5100516;27;70586;-34
2023/11/15 08:45:57;;;;;;;;;;;;;;;32.75;61.71;100963.50;5100092;27;66358;-33
2023/11/15 08:48:27;;;;;;;;;;;;;;;32.75;61.74;100958.09;5100084;27;70552;-34
2023/11/15 08:50:56;;;;;;;;;;;;;;;32.75;61.67;100959.97;5099281;27;66063;-32
2023/11/15 08:53:27;;;;;;;;;;;;;;;32.75;61.82;100968.94;5100771;27;70392;-34
2023/11/15 08:55:58;;;;;;;;;;;;;;;32.75;61.47;100974.38;5100958;27;66138;-34
2023/11/15 08:58:28;;;;;;;;;;;;;;;32.77;61.58;100976.88;5099348;27;70011;-34
2023/11/15 09:01:01;;;;;;;;;;;;;;;32.76;61.63;100973.31;5100164;27;66909;-34
2023/11/15 09:03:31;;;;;;;;;;;;;;;32.76;61.27;100965.16;5100470;27;69925;-34
2023/11/15 09:06:01;;;;;;;;;;;;;;;32.76;61.43;100965.16;5095139;27;66450;-35
2023/11/15 09:08:31;;;;;;;;;;;;;;;32.77;61.33;100966.84;5101434;27;70793;-35
2023/11/15 09:11:02;;;;;;;;;;;;;;;32.77;61.42;100966.84;5101994;27;66804;-34
2023/11/15 09:13:33;;;;;;;;;;;;;;;32.76;61.28;100967.88;5102076;27;69183;-34
2023/11/15 09:16:03;;;;;;;;;;;;;;;32.77;61.54;100971.44;5103657;27;66476;-33
2023/11/15 09:18:35;;;;;;;;;;;;;;;32.75;61.58;100966.22;5104058;27;69777;-34
2023/11/15 09:21:05;;;;;;;;;;;;;;;32.75;61.62;100960.81;5097989;27;65457;-34
2023/11/15 09:23:36;;;;;;;;;;;;;;;32.41;63.29;100963.13;5099664;27;69503;-34
2023/11/15 09:26:09;;;;;;;;;;;;;;;32.24;63.92;100972.94;5095537;27;66303;-35
2023/11/15 09:28:40;;;;;;;;;;;;;;;32.18;64.67;100968.41;5083009;27;70852;-34
2023/11/15 09:31:12;;;;;;;;;;;;;;;32.11;64.96;100962.25;5084874;27;66029;-36
2023/11/15 09:33:42;;;;;;;;;;;;;;;31.93;65.10;100942.22;5086365;27;70532;-34
2023/11/15 09:36:12;;;;;;;;;;;;;;;32.05;65.43;100977.56;5068593;27;66528;-36
2023/11/15 09:38:43;;;;;;;;;;;;;;;32.00;65.54;100977.41;5084627;27;71033;-35
2023/11/15 09:41:13;;;;;;;;;;;;;;;31.85;65.69;100950.63;5095140;27;66647;-34
2023/11/15 09:43:51;;;;;;;;;;;;;;;32.22;64.82;100975.06;5074679;27;69889;-35
2023/11/15 09:46:26;;;;;;;;;;;;;;;32.34;64.31;100975.94;5102214;27;65608;-34
2023/11/15 09:48:56;;;;;;;;;;;;;;;32.40;63.90;100961.47;5100562;27;70819;-34
2023/11/15 09:51:37;;;;;;;;;;;;;;;32.22;64.58;100969.63;5091446;27;66472;-34
2023/11/15 09:54:07;;;;;;;;;;;;;;;32.10;65.74;100982.31;5094746;27;70796;-34
2023/11/15 09:56:48;;;;;;;;;;;;;;;32.05;65.98;100981.09;5097586;27;66813;-34
2023/11/15 09:59:18;;;;;;;;;;;;;;;32.04;66.24;100994.91;5097679;27;70523;-35
2023/11/15 10:01:49;;;;;;;;;;;;;;;32.01;66.37;100990.75;5097232;27;67311;-33
2023/11/15 10:04:22;;;;;;;;;;;;;;;31.99;66.56;100992.03;5099790;27;69079;-35
2023/11/15 10:06:52;;;;;;;;;;;;;;;31.97;66.94;101000.38;5099063;27;66930;-36
2023/11/15 10:09:42;;;;;;;;;;;;;;;31.96;66.96;101009.59;5095776;27;69139;-35
2023/11/15 10:12:12;;;;;;;;;;;;;;;31.95;67.10;101001.66;5097220;27;65547;-37
2023/11/15 10:14:52;;;;;;;;;;;;;;;31.94;66.87;100995.41;5094520;27;70067;-34
2023/11/15 10:17:37;;;;;;;;;;;;;;;31.94;67.15;100994.56;5094575;27;65358;-33
2023/11/15 10:20:22;;;;;;;;;;;;;;;31.95;67.12;100996.22;5095764;27;70209;-37
2023/11/15 10:22:53;;;;;;;;;;;;;;;31.93;66.97;100988.31;5078655;27;65343;-35
2023/11/15 10:25:26;;;;;;;;;;;;;;;31.91;66.81;100993.13;5095844;27;70528;-36
2023/11/15 10:28:09;;;;;;;;;;;;;;;31.89;67.22;100992.50;5098068;27;66894;-36
2023/11/15 10:30:40;;;;;;;;;;;;;;;31.90;67.13;100996.03;5080455;27;69920;-34
2023/11/15 10:33:10;;;;;;;;;;;;;;;31.88;67.16;101004.41;5099305;27;66140;-35
2023/11/15 10:35:43;;;;;;;;;;;;;;;31.90;67.35;101005.03;5094683;27;70680;-34
2023/11/15 10:38:19;;;;;;;;;;;;;;;31.85;65.83;101013.00;5077196;27;65505;-33
2023/11/15 10:40:50;;;;;;;;;;;;;;;31.79;65.01;101008.47;5098189;27;70853;-34
2023/11/15 10:43:20;;;;;;;;;;;;;;;31.76;63.87;101017.03;5097801;27;66198;-35
2023/11/15 10:45:53;;;;;;;;;;;;;;;31.67;63.35;101015.66;5101277;27;70762;-33
2023/11/15 10:48:25;;;;;;;;;;;;;;;31.65;63.29;101026.75;5099438;27;65736;-34
2023/11/15 10:50:57;;;;;;;;;;;;;;;31.89;63.43;101035.91;5094146;27;70525;-34
2023/11/15 10:53:28;;;;;;;;;;;;;;;32.00;63.16;101037.91;5095711;27;66856;-34
2023/11/15 10:55:59;;;;;;;;;;;;;;;32.07;62.96;101031.56;5097384;27;70841;-34
2023/11/15 10:58:30;;;;;;;;;;;;;;;32.12;62.89;101039.88;5095170;27;65629;-34
2023/11/15 11:01:01;;;;;;;;;;;;;;;32.17;62.78;101034.59;5094018;27;70294;-34
2023/11/15 11:03:31;;;;;;;;;;;;;;;32.20;62.79;101036.88;5095261;27;65103;-33
2023/11/15 11:06:08;;;;;;;;;;;;;;;32.23;62.88;101039.13;5097920;27;70660;-34
2023/11/15 11:08:41;;;;;;;;;;;;;;;32.26;62.73;101046.81;5097120;27;65479;-34
2023/11/15 11:11:14;;;;;;;;;;;;;;;32.27;62.85;101053.91;5093093;27;69985;-36
2023/11/15 11:13:45;;;;;;;;;;;;;;;32.29;62.71;101051.81;5093703;27;66006;-34
2023/11/15 11:16:34;;;;;;;;;;;;;;;32.30;62.64;101058.91;5096952;27;70031;-36
2023/11/15 11:19:21;;;;;;;;;;;;;;;32.31;62.88;101059.72;5095156;27;66312;-34
2023/11/15 11:22:04;;;;;;;;;;;;;;;32.31;62.69;101055.13;5100742;27;70679;-33
2023/11/15 11:24:48;;;;;;;;;;;;;;;32.31;62.79;101059.72;5101964;27;66130;-33
2023/11/15 11:27:19;;;;;;;;;;;;;;;32.31;63.12;101060.53;5099936;27;71168;-36
2023/11/15 11:29:49;;;;;;;;;;;;;;;32.31;63.07;101060.53;5102038;27;67251;-36
2023/11/15 11:32:26;;;;;;;;;;;;;;;32.32;63.00;101062.22;5101824;27;70720;-34
2023/11/15 11:35:06;;;;;;;;;;;;;;;32.30;63.09;101053.47;5103012;27;66056;-34
2023/11/15 11:37:44;;;;;;;;;;;;;;;32.31;63.00;101060.53;5102417;27;70217;-33
2023/11/15 11:40:15;;;;;;;;;;;;;;;32.31;63.11;101062.44;5100896;27;66960;-36
2023/11/15 11:42:47;;;;;;;;;;;;;;;32.31;63.11;101071.41;5102438;27;69857;-36
2023/11/15 11:45:17;;;;;;;;;;;;;;;32.30;62.95;101067.03;5102799;27;67019;-36
2023/11/15 11:47:48;;;;;;;;;;;;;;;32.29;63.21;101068.09;5102321;27;69883;-34
2023/11/15 11:50:23;;;;;;;;;;;;;;;32.28;63.22;101064.53;5102844;27;65805;-36
2023/11/15 11:52:57;;;;;;;;;;;;;;;32.29;63.26;101073.53;5100999;27;69754;-35
2023/11/15 11:55:31;;;;;;;;;;;;;;;32.28;63.52;101082.72;5084369;27;66026;-36
2023/11/15 11:58:01;;;;;;;;;;;;;;;32.27;63.41;101081.06;5100480;27;70737;-36
2023/11/15 12:00:31;;;;;;;;;;;;;;;32.27;63.49;101097.34;5101370;27;66062;-36
2023/11/15 12:03:02;;;;;;;;;;;;;;;32.26;63.58;101095.69;5102576;27;69985;-34
2023/11/15 12:05:37;;;;;;;;;;;;;;;32.25;63.64;101104.88;5101916;27;66381;-34
2023/11/15 12:08:09;;;;;;;;;;;;;;;32.25;63.69;101113.03;5073049;27;70313;-34
2023/11/15 12:10:41;;;;;;;;;;;;;;;32.24;63.82;101114.09;5102171;27;67033;-34
2023/11/15 12:13:12;;;;;;;;;;;;;;;32.23;63.96;101112.41;5094208;27;70399;-33
2023/11/15 12:15:43;;;;;;;;;;;;;;;32.22;64.17;101108.06;5101698;27;66417;-35
2023/11/15 12:18:13;;;;;;;;;;;;;;;32.21;64.17;101119.97;5102219;27;69688;-37
2023/11/15 12:20:44;;;;;;;;;;;;;;;32.21;64.28;101117.25;5099368;27;65351;-35
2023/11/15 12:23:17;;;;;;;;;;;;;;;32.20;64.06;101118.28;5095713;27;70330;-34
2023/11/15 12:25:52;;;;;;;;;;;;;;;32.19;64.36;101128.31;5101705;27;66720;-36
2023/11/15 12:28:24;;;;;;;;;;;;;;;32.19;64.41;101124.78;5091039;27;69786;-34
2023/11/15 12:30:54;;;;;;;;;;;;;;;32.19;64.35;101132.94;5088981;27;66004;-36
2023/11/15 12:33:28;;;;;;;;;;;;;;;32.10;66.72;101131.56;5100619;27;69876;-36
2023/11/15 12:35:58;;;;;;;;;;;;;;;31.88;69.08;101141.94;5077511;27;66678;-37
2023/11/15 12:38:29;;;;;;;;;;;;;;;31.80;70.05;101140.31;5093906;27;70450;-35
2023/11/15 12:41:03;;;;;;;;;;;;;;;31.75;70.91;101151.00;5087938;27;67303;-35
2023/11/15 12:43:35;;;;;;;;;;;;;;;31.68;71.43;101153.78;5097099;27;69934;-35
2023/11/15 12:46:15;;;;;;;;;;;;;;;31.68;71.74;101161.06;5097712;27;66704;-35
2023/11/15 12:48:50;;;;;;;;;;;;;;;31.66;71.96;101165.88;5094441;27;70652;-35
2023/11/15 12:51:20;;;;;;;;;;;;;;;31.66;72.26;101168.59;5094663;27;66589;-37
2023/11/15 12:53:53;;;;;;;;;;;;;;;31.64;72.52;101173.41;5104926;27;69564;-35
2023/11/15 12:56:23;;;;;;;;;;;;;;;31.60;72.60;101179.25;5102349;27;66449;-37